Time;durP1;ratioP1;P1;durP2;ratioP2;P2;SDS_P1;SDS_P2;PMS_P1;PMS_P2;Temp;Humidity;BMP_temperature;BMP_pressure;BME280_temperature;BME280_humidity;BME280_pressure;Samples;Min_cycle;Max_cycle;Signal;HPM_P1;HPM_P2
2023/06/10 00:01:01;;;;;;;14.07;10.77;;;16.90;99.90;;;;;;6020537;23;20928;-80
2023/06/10 00:03:28;;;;;;;13.63;12.23;;;16.80;99.90;;;;;;6020994;23;20461;-80
2023/06/10 00:05:58;;;;;;;13.77;12.03;;;16.70;99.90;;;;;;6010611;23;20423;-80
2023/06/10 00:08:31;;;;;;;15.23;13.47;;;16.60;99.90;;;;;;6010962;23;20438;-79
2023/06/10 00:10:58;;;;;;;14.87;13.37;;;16.50;99.90;;;;;;6011415;23;20415;-80
2023/06/10 00:13:29;;;;;;;15.23;13.10;;;16.50;99.90;;;;;;6010336;23;20449;-80
2023/06/10 00:15:58;;;;;;;17.33;15.73;;;16.30;99.90;;;;;;6011067;23;20438;-80
2023/06/10 00:18:31;;;;;;;17.27;15.67;;;16.30;99.90;;;;;;6010902;23;20446;-80
2023/06/10 00:21:03;;;;;;;22.50;19.03;;;16.20;99.90;;;;;;6011147;23;20403;-80
2023/06/10 00:23:31;;;;;;;22.40;20.90;;;16.20;99.90;;;;;;6010817;23;20467;-80
2023/06/10 00:25:59;;;;;;;26.80;24.90;;;16.10;99.90;;;;;;6010392;23;20423;-80
2023/06/10 00:28:35;;;;;;;29.07;27.07;;;16.10;99.90;;;;;;6010189;23;20423;-80
2023/06/10 00:31:04;;;;;;;32.63;30.53;;;16.00;99.90;;;;;;6011309;23;20434;-80
2023/06/10 00:33:31;;;;;;;37.57;35.30;;;15.90;99.90;;;;;;6010232;23;20963;-80
2023/06/10 00:36:04;;;;;;;52.97;50.10;;;15.80;99.90;;;;;;6011085;23;20756;-80
2023/06/10 00:38:33;;;;;;;114.47;109.80;;;15.70;99.90;;;;;;6009841;23;20442;-80
2023/06/10 00:41:00;;;;;;;144.37;138.87;;;15.70;99.90;;;;;;6010849;23;20499;-80
2023/06/10 00:43:27;;;;;;;184.97;177.60;;;15.60;99.90;;;;;;6019890;23;20834;-80
2023/06/10 00:45:55;;;;;;;178.27;171.87;;;15.60;99.90;;;;;;6010813;23;20425;-80
2023/06/10 00:48:26;;;;;;;135.93;130.60;;;15.60;99.90;;;;;;6010768;23;20422;-80
2023/06/10 00:50:54;;;;;;;157.07;151.23;;;15.40;99.90;;;;;;6010473;23;20511;-80
2023/06/10 00:53:26;;;;;;;197.33;189.93;;;15.40;99.90;;;;;;6010619;23;21172;-80
2023/06/10 00:55:56;;;;;;;202.90;195.83;;;15.50;99.90;;;;;;5985370;23;20444;-80
2023/06/10 00:58:26;;;;;;;133.53;128.40;;;15.60;99.90;;;;;;6010097;23;20445;-80
2023/06/10 01:01:00;;;;;;;160.37;154.27;;;15.50;99.90;;;;;;6007968;23;20460;-80
2023/06/10 01:03:30;;;;;;;152.03;146.27;;;15.50;99.90;;;;;;6008232;23;20789;-79
2023/06/10 01:06:06;;;;;;;152.80;146.90;;;15.50;99.90;;;;;;5985902;23;20911;-80
2023/06/10 01:08:42;;;;;;;148.47;142.77;;;15.50;99.90;;;;;;5985452;23;20418;-80
2023/06/10 01:11:15;;;;;;;150.60;144.70;;;15.50;99.90;;;;;;5984650;23;20426;-80
2023/06/10 01:13:44;;;;;;;141.57;136.17;;;15.50;99.90;;;;;;6010143;23;20434;-80
2023/06/10 01:16:16;;;;;;;139.03;133.43;;;15.40;99.90;;;;;;5985343;23;20418;-80
2023/06/10 01:18:47;;;;;;;166.57;160.17;;;15.40;99.90;;;;;;6010202;23;20427;-80
2023/06/10 01:21:24;;;;;;;142.93;137.43;;;15.30;99.90;;;;;;6010467;23;20407;-80
2023/06/10 01:23:54;;;;;;;192.67;185.73;;;15.30;99.90;;;;;;6010560;23;20532;-79
2023/06/10 01:26:27;;;;;;;205.20;197.93;;;15.20;99.90;;;;;;6009976;23;20426;-80
2023/06/10 01:29:02;;;;;;;226.37;218.67;;;15.20;99.90;;;;;;5985293;23;20423;-79
2023/06/10 01:31:40;;;;;;;235.90;227.50;;;15.30;99.90;;;;;;5986808;23;20402;-80
2023/06/10 01:34:13;;;;;;;295.93;285.77;;;15.10;99.90;;;;;;5984484;23;20675;-80
2023/06/10 01:36:47;;;;;;;272.23;262.73;;;15.10;99.90;;;;;;6010499;23;20407;-80
2023/06/10 01:39:17;;;;;;;314.57;303.43;;;15.00;99.90;;;;;;6010163;23;20430;-79
2023/06/10 01:41:44;;;;;;;320.70;309.50;;;15.00;99.90;;;;;;6010612;23;20446;-79
2023/06/10 01:44:21;;;;;;;329.13;317.30;;;14.90;99.90;;;;;;6010116;23;20474;-80
2023/06/10 01:46:51;;;;;;;375.57;361.63;;;14.90;99.90;;;;;;6009187;23;20422;-79
2023/06/10 01:49:18;;;;;;;408.77;392.67;;;14.80;99.90;;;;;;5985463;23;20657;-79
2023/06/10 01:51:49;;;;;;;420.67;403.60;;;14.80;99.90;;;;;;6019900;23;20422;-79
2023/06/10 01:54:17;;;;;;;456.60;437.10;;;14.80;99.90;;;;;;6009717;23;20443;-79
2023/06/10 01:56:44;;;;;;;462.27;443.27;;;14.70;99.90;;;;;;6010582;23;20450;-80
2023/06/10 01:59:11;;;;;;;458.07;438.87;;;14.70;99.90;;;;;;6010445;23;20442;-79
2023/06/10 02:01:40;;;;;;;460.60;441.13;;;14.70;99.90;;;;;;6009824;23;20422;-79
2023/06/10 02:04:07;;;;;;;511.20;489.23;;;14.60;99.90;;;;;;5984360;23;20450;-78
2023/06/10 02:06:35;;;;;;;526.13;503.17;;;14.50;99.90;;;;;;5985312;23;20471;-79
2023/06/10 02:09:06;;;;;;;550.73;526.63;;;14.60;99.90;;;;;;6009311;23;20951;-79
2023/06/10 02:11:33;;;;;;;568.30;543.30;;;14.60;99.90;;;;;;6009701;23;20453;-79
2023/06/10 02:14:01;;;;;;;578.77;553.10;;;14.70;99.90;;;;;;6009109;23;20446;-79
2023/06/10 02:16:36;;;;;;;577.00;551.30;;;14.50;99.90;;;;;;6009853;23;20967;-79
2023/06/10 02:19:06;;;;;;;603.43;575.97;;;14.50;99.90;;;;;;6009663;23;20426;-79
2023/06/10 02:21:35;;;;;;;576.57;550.70;;;14.50;99.90;;;;;;5984662;23;20448;-79
2023/06/10 02:24:09;;;;;;;554.90;530.03;;;14.40;99.90;;;;;;6009209;23;20446;-79
2023/06/10 02:29:20;;;;;;;596.33;568.07;;;14.30;99.90;;;;;;6007889;23;20429;-79
2023/06/10 02:31:56;;;;;;;583.77;556.43;;;14.30;99.90;;;;;;6008785;23;20414;-79
2023/06/10 02:34:27;;;;;;;580.07;552.80;;;14.20;99.90;;;;;;6008960;23;20845;-79
2023/06/10 02:36:58;;;;;;;545.03;520.00;;;14.20;99.90;;;;;;5985823;23;20506;-79
2023/06/10 02:39:27;;;;;;;639.77;608.70;;;14.10;99.90;;;;;;6009732;23;20431;-79
2023/06/10 02:41:55;;;;;;;664.23;632.13;;;14.10;99.90;;;;;;6009991;23;20418;-79
2023/06/10 02:44:22;;;;;;;635.10;605.20;;;14.20;99.90;;;;;;6008685;23;20828;-79
2023/06/10 02:46:54;;;;;;;609.23;581.00;;;14.20;99.90;;;;;;6019013;23;20997;-79
2023/06/10 02:49:22;;;;;;;660.70;628.97;;;14.20;99.90;;;;;;6009532;23;20418;-79
2023/06/10 02:51:53;;;;;;;674.00;640.80;;;14.10;99.90;;;;;;6009431;23;20414;-79
2023/06/10 02:54:21;;;;;;;641.97;611.60;;;14.00;99.90;;;;;;6009454;23;20439;-79
2023/06/10 03:30:42;;;;;;;669.40;636.47;;;13.90;99.90;;;;;;6001136;23;20676;-75
2023/06/10 03:33:21;;;;;;;;;;;;;;;;;;;;;
2023/06/10 03:45:15;;;;;;;630.77;602.07;;;13.90;99.90;;;;;;5950776;24;20440;-75
2023/06/10 03:51:38;;;;;;;678.70;646.30;;;13.90;99.90;;;;;;5824611;24;20742;-75
2023/06/10 03:59:52;;;;;;;707.50;672.60;;;14.00;99.90;;;;;;5972021;23;20699;-75
2023/06/10 04:02:21;;;;;;;669.57;637.00;;;13.90;99.90;;;;;;6010805;23;20423;-75
2023/06/10 04:04:53;;;;;;;629.60;600.60;;;14.10;99.90;;;;;;6019490;23;20446;-75
2023/06/10 04:13:37;;;;;;;591.10;564.50;;;14.10;99.90;;;;;;6004995;23;20442;-75
2023/06/10 04:16:05;;;;;;;600.10;572.90;;;14.10;99.90;;;;;;6010503;23;20422;-75
2023/06/10 04:18:44;;;;;;;596.93;570.23;;;14.20;99.90;;;;;;5984767;23;20414;-75
2023/06/10 04:22:10;;;;;;;578.40;551.27;;;14.30;99.90;;;;;;6010292;23;20399;-75
2023/06/10 04:24:44;;;;;;;535.03;511.77;;;14.30;99.90;;;;;;5923583;24;20441;-75
2023/06/10 04:31:11;;;;;;;566.30;541.17;;;14.50;99.90;;;;;;5989276;23;20947;-76
2023/06/10 04:34:12;;;;;;;581.73;556.03;;;14.70;99.90;;;;;;5992973;23;20454;-75
2023/06/10 04:46:30;;;;;;;479.37;458.47;;;15.00;99.90;;;;;;5992372;23;20446;-75
2023/06/10 04:49:04;;;;;;;450.23;431.93;;;15.10;99.90;;;;;;6019298;23;20430;-75
2023/06/10 04:51:34;;;;;;;483.43;463.07;;;15.20;99.90;;;;;;6010156;23;20446;-75
2023/06/10 04:54:03;;;;;;;382.30;367.27;;;15.30;99.90;;;;;;6009327;23;20439;-75
2023/06/10 04:56:35;;;;;;;361.37;347.90;;;15.50;99.90;;;;;;6010167;23;20426;-75
2023/06/10 04:59:23;;;;;;;256.20;247.10;;;15.60;99.90;;;;;;6010342;23;20783;-74
2023/06/10 05:02:01;;;;;;;310.30;298.70;;;15.80;99.90;;;;;;6008150;23;20486;-75
2023/06/10 05:04:30;;;;;;;294.53;284.17;;;15.90;99.90;;;;;;6010012;23;20485;-74
2023/06/10 05:07:07;;;;;;;290.73;280.13;;;16.10;99.90;;;;;;5985244;23;20478;-75
2023/06/10 05:09:36;;;;;;;283.53;273.10;;;16.20;99.90;;;;;;5985326;23;20473;-75
2023/06/10 05:12:08;;;;;;;306.33;295.03;;;16.30;99.90;;;;;;6009976;23;20931;-76
2023/06/10 05:17:25;;;;;;;281.40;270.83;;;16.60;99.90;;;;;;6008015;23;20423;-74
2023/06/10 05:19:52;;;;;;;110.60;105.20;;;17.10;99.90;;;;;;6010138;23;20415;-77
2023/06/10 05:22:23;;;;;;;37.10;34.00;;;17.40;99.90;;;;;;6010027;23;20414;-75
2023/06/10 05:24:52;;;;;;;26.30;22.03;;;17.90;99.90;;;;;;6019158;23;20827;-75
2023/06/10 05:27:19;;;;;;;19.80;17.70;;;18.40;99.90;;;;;;6010210;23;20415;-75
2023/06/10 05:30:04;;;;;;;21.20;17.17;;;18.90;99.90;;;;;;6010035;23;20454;-75
2023/06/10 05:32:31;;;;;;;21.43;16.57;;;19.30;99.90;;;;;;6010272;23;20409;-76
2023/06/10 05:34:59;;;;;;;17.20;15.40;;;19.70;99.90;;;;;;6009247;23;20746;-76
2023/06/10 05:37:36;;;;;;;16.50;13.83;;;20.10;99.90;;;;;;6010212;23;20419;-75
2023/06/10 05:40:05;;;;;;;18.40;15.03;;;20.50;99.90;;;;;;6009861;23;20486;-75
2023/06/10 05:42:35;;;;;;;18.77;14.33;;;21.10;99.90;;;;;;6019150;23;20475;-75
2023/06/10 05:45:25;;;;;;;14.87;13.20;;;21.30;99.90;;;;;;6010259;23;20487;-75
2023/06/10 05:47:53;;;;;;;15.77;12.30;;;21.80;99.90;;;;;;5999831;23;20451;-76
2023/06/10 05:50:19;;;;;;;14.73;11.97;;;21.90;98.60;;;;;;6009301;23;20478;-75
2023/06/10 05:52:56;;;;;;;16.07;12.77;;;22.00;96.90;;;;;;6009692;23;20450;-75
2023/06/10 05:55:48;;;;;;;16.03;12.57;;;22.10;96.60;;;;;;5984849;23;20465;-75
2023/06/10 05:58:45;;;;;;;14.10;11.93;;;22.40;96.10;;;;;;5958575;24;20424;-75
2023/06/10 06:03:59;;;;;;;15.50;11.10;;;23.00;92.90;;;;;;5868746;24;20473;-76
2023/06/10 06:06:52;;;;;;;11.40;9.67;;;23.60;92.20;;;;;;5868548;24;20458;-75
2023/06/10 06:12:17;;;;;;;12.80;9.90;;;24.60;82.40;;;;;;5978711;24;20479;-75
2023/06/10 06:15:02;;;;;;;13.37;11.30;;;24.70;82.50;;;;;;5970267;24;20450;-76
2023/06/10 06:17:37;;;;;;;21.13;10.90;;;24.90;82.60;;;;;;5981596;24;20403;-76
2023/06/10 06:20:15;;;;;;;15.17;9.37;;;24.70;75.50;;;;;;5981713;24;21117;-76
2023/06/10 06:22:51;;;;;;;13.23;9.30;;;25.00;73.30;;;;;;5981787;24;20465;-76
2023/06/10 06:25:26;;;;;;;13.00;10.80;;;25.00;71.50;;;;;;5957629;24;20403;-75
2023/06/10 06:27:59;;;;;;;12.73;9.90;;;25.10;66.50;;;;;;5981900;24;20381;-75
2023/06/10 06:30:32;;;;;;;13.20;9.27;;;25.50;69.20;;;;;;5981591;24;20466;-75
2023/06/10 06:36:09;;;;;;;12.03;9.17;;;25.30;58.10;;;;;;5977138;24;20503;-75
2023/06/10 06:38:39;;;;;;;12.33;8.93;;;25.70;58.70;;;;;;5991646;24;20920;-75
2023/06/10 06:41:06;;;;;;;12.70;9.10;;;25.60;56.20;;;;;;5958736;24;20720;-76
2023/06/10 06:43:34;;;;;;;15.50;9.53;;;26.10;55.50;;;;;;5983461;24;20442;-75
2023/06/10 06:46:02;;;;;;;14.33;9.17;;;26.10;52.00;;;;;;5983125;24;20785;-75
2023/06/10 06:48:38;;;;;;;13.00;10.33;;;26.30;51.80;;;;;;5957687;24;20595;-75
2023/06/10 06:51:08;;;;;;;11.13;8.20;;;26.10;48.10;;;;;;5958587;24;20419;-75
2023/06/10 06:54:05;;;;;;;14.93;9.13;;;26.40;42.00;;;;;;5982581;24;20417;-75
2023/06/10 06:59:27;;;;;;;15.50;9.57;;;26.10;48.70;;;;;;5976937;23;20868;-73
2023/06/10 07:08:34;;;;;;;;;;;;;;;;;;;;;
2023/06/10 07:14:27;;;;;;;10.90;7.67;;;27.20;32.20;;;;;;5921866;24;20481;-75
2023/06/10 07:17:27;;;;;;;9.53;7.30;;;27.50;27.20;;;;;;5992024;24;20804;-76
2023/06/10 07:20:09;;;;;;;13.33;7.47;;;27.80;24.80;;;;;;5992327;24;20938;-75
2023/06/10 07:47:20;;;;;;;8.70;6.47;;;28.70;10.20;;;;;;5978883;23;20466;-65
2023/06/10 07:49:50;;;;;;;13.70;7.03;;;29.10;9.80;;;;;;5981872;24;20425;-65
2023/06/10 07:52:16;;;;;;;11.53;6.87;;;29.10;9.50;;;;;;5981955;24;20419;-66
2023/06/10 07:54:43;;;;;;;11.47;6.93;;;29.30;11.20;;;;;;5981977;24;20397;-65
2023/06/10 07:57:10;;;;;;;9.10;6.80;;;29.20;7.80;;;;;;5982293;24;20423;-65
2023/06/10 07:59:37;;;;;;;11.90;7.13;;;28.70;5.40;;;;;;5982150;24;20443;-65
2023/06/10 08:02:04;;;;;;;12.90;6.90;;;28.80;9.60;;;;;;5981684;24;20831;-65
2023/06/10 08:04:34;;;;;;;8.40;6.10;;;29.20;6.50;;;;;;5981982;24;20495;-65
2023/06/10 08:07:02;;;;;;;10.40;6.97;;;29.30;10.70;;;;;;5982112;24;20455;-65
2023/06/10 08:09:29;;;;;;;11.60;6.30;;;29.40;2.70;;;;;;5981598;24;20423;-65
2023/06/10 08:11:56;;;;;;;9.03;6.40;;;29.20;2.60;;;;;;5981310;24;20420;-65
2023/06/10 08:14:23;;;;;;;11.10;8.07;;;29.70;2.80;;;;;;5981968;24;20427;-64
2023/06/10 08:16:49;;;;;;;12.03;6.67;;;29.80;2.90;;;;;;5981547;24;20459;-64
2023/06/10 08:19:16;;;;;;;10.17;7.27;;;30.20;3.10;;;;;;5981770;24;20447;-65
2023/06/10 08:21:45;;;;;;;10.27;6.47;;;30.60;1.00;;;;;;5982324;24;20401;-65
2023/06/10 08:24:11;;;;;;;11.57;7.53;;;30.60;1.00;;;;;;5991418;24;20391;-65
2023/06/10 08:26:41;;;;;;;9.87;7.00;;;30.20;1.00;;;;;;5981816;24;20518;-65
2023/06/10 08:29:08;;;;;;;11.67;7.23;;;30.10;1.00;;;;;;5982289;24;20409;-65
2023/06/10 08:31:35;;;;;;;10.60;7.10;;;30.40;1.00;;;;;;5982310;24;20786;-65
2023/06/10 08:34:02;;;;;;;10.40;7.00;;;30.50;1.00;;;;;;5981870;24;20423;-65
2023/06/10 08:36:29;;;;;;;9.43;6.87;;;30.70;1.00;;;;;;5982019;24;20419;-64
2023/06/10 08:39:00;;;;;;;9.83;7.27;;;31.10;1.00;;;;;;5981974;24;20485;-65
2023/06/10 08:41:29;;;;;;;9.90;7.30;;;30.90;1.00;;;;;;5981971;24;20382;-65
2023/06/10 08:44:04;;;;;;;10.23;7.00;;;31.10;1.00;;;;;;5981169;24;20423;-64
2023/06/10 08:46:33;;;;;;;9.90;7.10;;;31.20;1.00;;;;;;5981872;24;20484;-65
2023/06/10 08:49:06;;;;;;;12.70;7.40;;;31.70;1.00;;;;;;5981625;24;20394;-64
2023/06/10 08:51:35;;;;;;;15.10;9.27;;;32.10;1.00;;;;;;5982123;24;20412;-64
2023/06/10 08:54:12;;;;;;;13.17;7.83;;;31.70;1.00;;;;;;5981174;24;20426;-64
2023/06/10 08:56:43;;;;;;;11.43;8.30;;;31.60;1.00;;;;;;5983176;23;20461;-61
2023/06/10 08:59:10;;;;;;;15.70;8.53;;;30.90;1.00;;;;;;5983349;24;20423;-62
2023/06/10 09:01:37;;;;;;;14.03;8.30;;;31.20;1.00;;;;;;5984166;24;20426;-63
2023/06/10 09:04:05;;;;;;;11.97;7.73;;;31.70;1.00;;;;;;5983788;24;20419;-62
2023/06/10 09:06:34;;;;;;;14.50;9.60;;;31.80;1.00;;;;;;5982171;23;20468;-62
2023/06/10 09:09:01;;;;;;;9.83;7.87;;;31.80;1.00;;;;;;5982029;24;20414;-63
2023/06/10 09:11:29;;;;;;;12.80;8.23;;;31.20;1.00;;;;;;5982497;24;20483;-63
2023/06/10 09:13:56;;;;;;;9.30;7.30;;;31.80;1.00;;;;;;5982178;24;20514;-62
2023/06/10 09:16:23;;;;;;;11.53;9.03;;;32.30;1.00;;;;;;5982361;24;20420;-62
2023/06/10 09:18:54;;;;;;;12.57;8.83;;;32.70;1.00;;;;;;5982509;24;20400;-63
2023/06/10 09:21:22;;;;;;;10.03;7.70;;;32.10;1.00;;;;;;5982706;24;20409;-62
2023/06/10 09:23:49;;;;;;;11.17;7.23;;;31.90;1.00;;;;;;5982125;24;20722;-63
2023/06/10 09:26:16;;;;;;;12.63;8.20;;;32.00;1.00;;;;;;5982251;24;20442;-63
2023/06/10 09:28:45;;;;;;;12.37;8.67;;;32.20;1.00;;;;;;5982150;24;20429;-63
2023/06/10 09:31:13;;;;;;;9.93;8.17;;;32.10;1.00;;;;;;5982186;24;20415;-63
2023/06/10 09:33:41;;;;;;;13.93;8.70;;;32.00;1.00;;;;;;5982025;24;20429;-63
2023/06/10 09:36:08;;;;;;;9.93;7.63;;;33.10;1.00;;;;;;5982987;24;20484;-63
2023/06/10 09:38:36;;;;;;;8.53;6.73;;;33.50;1.00;;;;;;5982570;24;20532;-63
2023/06/10 09:41:04;;;;;;;10.80;8.50;;;33.60;1.00;;;;;;5982523;24;20450;-63
2023/06/10 09:43:41;;;;;;;10.37;7.83;;;32.50;1.00;;;;;;5981590;24;20420;-63
2023/06/10 09:46:16;;;;;;;10.73;7.97;;;32.30;1.00;;;;;;5981269;24;20489;-63
2023/06/10 09:48:44;;;;;;;12.50;7.80;;;32.60;1.00;;;;;;5981665;24;20866;-64
2023/06/10 09:51:11;;;;;;;11.27;6.70;;;32.50;1.00;;;;;;5982619;24;20416;-63
2023/06/10 09:53:38;;;;;;;13.17;7.60;;;33.10;1.00;;;;;;5981817;24;20446;-64
2023/06/10 09:56:06;;;;;;;10.40;6.90;;;33.20;1.00;;;;;;5982175;24;20401;-64
2023/06/10 09:58:42;;;;;;;9.30;6.83;;;33.40;1.00;;;;;;5981981;24;20424;-65
2023/06/10 10:01:12;;;;;;;9.80;6.50;;;33.80;1.00;;;;;;5982519;24;20458;-64
2023/06/10 10:03:47;;;;;;;9.83;6.23;;;33.40;1.00;;;;;;5981780;24;20403;-65
2023/06/10 10:06:14;;;;;;;11.80;7.00;;;33.30;1.00;;;;;;5982161;24;20408;-65
2023/06/10 10:08:41;;;;;;;10.20;6.53;;;33.60;1.00;;;;;;5981237;24;20383;-64
2023/06/10 10:11:08;;;;;;;11.87;6.83;;;33.50;1.00;;;;;;5981827;24;20910;-65
2023/06/10 10:13:35;;;;;;;16.17;7.67;;;33.70;1.00;;;;;;5981377;24;20398;-65
2023/06/10 10:16:07;;;;;;;10.10;6.23;;;33.80;1.00;;;;;;5982518;24;20426;-65
2023/06/10 10:18:39;;;;;;;10.80;6.30;;;33.90;1.00;;;;;;5982158;24;20404;-65
2023/06/10 10:21:13;;;;;;;11.00;6.67;;;34.70;1.00;;;;;;5982216;24;20457;-65
2023/06/10 10:23:49;;;;;;;13.20;7.70;;;35.30;1.00;;;;;;5981571;24;20486;-65
2023/06/10 10:26:17;;;;;;;10.30;6.97;;;35.80;1.00;;;;;;5981184;24;20938;-65
2023/06/10 10:28:48;;;;;;;8.70;6.80;;;35.60;1.00;;;;;;5982270;24;20394;-65
2023/06/10 10:31:19;;;;;;;10.00;6.53;;;34.50;1.00;;;;;;5981707;24;20417;-65
2023/06/10 10:33:56;;;;;;;9.47;6.77;;;34.10;1.00;;;;;;5981552;24;20397;-65
2023/06/10 10:36:23;;;;;;;9.40;6.60;;;33.90;1.00;;;;;;5982211;24;20463;-65
2023/06/10 10:38:50;;;;;;;14.13;7.93;;;34.90;1.00;;;;;;5978695;24;20420;-65
2023/06/10 10:41:19;;;;;;;12.70;7.67;;;35.10;1.00;;;;;;5980643;24;20418;-65
2023/06/10 10:43:46;;;;;;;9.57;7.53;;;35.80;1.00;;;;;;5979731;24;20883;-65
2023/06/10 10:46:15;;;;;;;9.50;6.90;;;35.40;1.00;;;;;;5980637;24;20419;-65
2023/06/10 10:48:42;;;;;;;11.67;7.43;;;35.40;1.00;;;;;;5980908;24;20402;-65
2023/06/10 10:51:11;;;;;;;9.90;7.80;;;35.70;1.00;;;;;;5981016;24;20717;-65
2023/06/10 10:53:39;;;;;;;8.90;6.80;;;34.50;1.00;;;;;;5980494;24;20395;-65
2023/06/10 10:56:07;;;;;;;13.87;8.30;;;34.00;1.00;;;;;;5981037;24;20403;-65
2023/06/10 10:58:35;;;;;;;12.00;7.10;;;33.80;1.00;;;;;;5980472;24;20427;-65
2023/06/10 11:01:11;;;;;;;10.60;7.17;;;35.40;1.00;;;;;;5980885;24;20418;-65
2023/06/10 11:03:45;;;;;;;10.37;7.43;;;35.70;1.00;;;;;;5979142;24;20418;-65
2023/06/10 11:06:16;;;;;;;12.20;7.70;;;35.40;1.00;;;;;;5980074;24;20406;-65
2023/06/10 11:08:50;;;;;;;19.40;8.47;;;34.50;1.00;;;;;;5979379;24;20411;-64
2023/06/10 11:11:22;;;;;;;10.80;8.40;;;33.60;1.00;;;;;;5979991;24;20419;-65
2023/06/10 11:14:27;;;;;;;12.13;8.33;;;32.90;1.00;;;;;;5980383;24;20403;-65
2023/06/10 11:16:55;;;;;;;13.60;7.90;;;32.00;1.00;;;;;;5950845;24;20423;-65
2023/06/10 11:19:33;;;;;;;13.73;7.60;;;31.20;1.00;;;;;;5980013;24;20929;-65
2023/06/10 11:22:03;;;;;;;9.97;7.23;;;31.10;1.00;;;;;;5980760;24;20406;-65
2023/06/10 11:24:30;;;;;;;13.77;8.83;;;31.40;1.00;;;;;;5982211;24;20426;-65
2023/06/10 11:27:15;;;;;;;10.80;8.07;;;30.90;1.00;;;;;;5983913;24;20419;-65
2023/06/10 11:29:56;;;;;;;11.80;7.80;;;30.80;1.00;;;;;;5983543;24;20743;-67
2023/06/10 11:32:24;;;;;;;10.60;8.60;;;30.70;1.00;;;;;;5982901;24;20423;-67
2023/06/10 11:34:53;;;;;;;12.67;8.40;;;30.80;1.00;;;;;;5983828;24;20422;-67
2023/06/10 11:37:22;;;;;;;9.80;7.90;;;31.00;1.00;;;;;;5983173;24;20419;-67
2023/06/10 11:39:53;;;;;;;10.00;7.10;;;31.50;1.00;;;;;;5983290;24;20888;-67
2023/06/10 11:42:20;;;;;;;15.13;7.80;;;32.30;1.00;;;;;;5983372;24;20378;-67
2023/06/10 11:44:50;;;;;;;15.20;7.83;;;32.40;1.00;;;;;;5983801;24;20700;-67
2023/06/10 11:47:17;;;;;;;10.23;8.00;;;33.00;1.00;;;;;;5983557;24;20419;-67
2023/06/10 11:49:44;;;;;;;10.87;8.03;;;34.40;1.00;;;;;;5983725;24;20426;-66
2023/06/10 11:52:11;;;;;;;11.77;8.00;;;35.20;1.00;;;;;;5983838;24;20415;-66
2023/06/10 11:54:40;;;;;;;9.30;6.57;;;36.90;1.00;;;;;;5982598;24;20723;-66
2023/06/10 11:57:08;;;;;;;8.03;6.60;;;37.90;1.00;;;;;;5983268;24;20419;-66
2023/06/10 11:59:35;;;;;;;10.00;6.93;;;38.80;1.00;;;;;;5983579;24;20426;-68
2023/06/10 12:02:02;;;;;;;9.30;7.20;;;37.40;1.00;;;;;;5983513;24;20420;-68
2023/06/10 12:04:29;;;;;;;11.57;7.87;;;37.40;1.00;;;;;;5982866;24;20394;-68
2023/06/10 12:06:56;;;;;;;10.17;6.30;;;37.80;1.00;;;;;;5983051;24;20402;-68
2023/06/10 12:09:25;;;;;;;10.77;7.80;;;38.70;1.00;;;;;;5982490;24;20430;-68
2023/06/10 12:11:55;;;;;;;11.67;7.00;;;38.10;1.00;;;;;;5983114;24;20408;-67
2023/06/10 12:14:57;;;;;;;8.70;6.40;;;36.90;1.00;;;;;;5982799;24;20723;-66
2023/06/10 12:17:36;;;;;;;10.83;7.67;;;37.20;1.00;;;;;;5983584;24;20405;-66
2023/06/10 12:20:05;;;;;;;10.13;7.10;;;37.30;1.00;;;;;;5983478;24;20487;-68
2023/06/10 12:22:37;;;;;;;11.70;7.50;;;36.10;1.00;;;;;;5982723;24;20404;-67
2023/06/10 12:25:06;;;;;;;12.77;7.57;;;35.00;1.00;;;;;;5983322;24;20403;-67
2023/06/10 12:27:36;;;;;;;8.57;6.60;;;34.20;1.00;;;;;;5983210;24;20424;-66
2023/06/10 12:30:05;;;;;;;11.10;7.20;;;33.30;1.00;;;;;;5985198;24;20424;-67
2023/06/10 12:32:40;;;;;;;9.43;6.70;;;32.00;1.00;;;;;;5984444;24;20390;-66
2023/06/10 12:35:09;;;;;;;13.53;8.57;;;31.50;1.00;;;;;;5984314;24;20892;-66
2023/06/10 12:37:36;;;;;;;11.07;7.30;;;31.20;1.00;;;;;;5983371;24;20400;-66
2023/06/10 12:40:05;;;;;;;9.93;6.57;;;30.90;1.00;;;;;;5984126;24;20485;-66
2023/06/10 12:42:35;;;;;;;10.90;8.27;;;30.90;1.00;;;;;;5983040;24;20503;-66
2023/06/10 12:45:02;;;;;;;8.57;7.30;;;30.90;1.00;;;;;;5983362;24;20394;-66
2023/06/10 12:47:34;;;;;;;12.33;7.43;;;30.90;1.00;;;;;;5983700;24;20441;-66
2023/06/10 12:50:01;;;;;;;11.60;7.57;;;31.00;1.00;;;;;;5983323;24;20477;-66
2023/06/10 12:52:28;;;;;;;10.17;7.63;;;31.30;1.00;;;;;;5982889;24;20426;-67
2023/06/10 12:54:55;;;;;;;10.77;7.10;;;32.60;1.00;;;;;;5984011;24;20419;-66
2023/06/10 12:57:23;;;;;;;9.53;6.70;;;34.00;1.00;;;;;;5983193;24;20399;-67
2023/06/10 12:59:52;;;;;;;9.43;6.20;;;36.30;1.00;;;;;;5983308;24;20395;-67
2023/06/10 13:02:20;;;;;;;10.03;6.60;;;36.90;1.00;;;;;;5982104;24;20444;-67
2023/06/10 13:04:47;;;;;;;9.33;7.00;;;36.70;1.00;;;;;;5982248;24;20912;-66
2023/06/10 13:07:14;;;;;;;9.63;7.03;;;37.50;1.00;;;;;;5982285;24;20921;-66
2023/06/10 13:09:41;;;;;;;10.30;7.30;;;37.00;1.00;;;;;;5982810;24;20398;-67
2023/06/10 13:12:09;;;;;;;9.30;6.77;;;37.20;1.00;;;;;;5982778;24;20390;-67
2023/06/10 13:14:37;;;;;;;11.83;6.37;;;36.20;1.00;;;;;;5982622;24;20394;-66
2023/06/10 13:17:06;;;;;;;16.17;8.53;;;35.90;1.00;;;;;;5983614;24;20463;-67
2023/06/10 13:19:33;;;;;;;8.90;6.10;;;35.40;1.00;;;;;;5982724;24;20801;-66
2023/06/10 13:22:00;;;;;;;9.73;7.00;;;36.10;1.00;;;;;;5982210;24;20421;-66
2023/06/10 13:24:27;;;;;;;9.23;6.43;;;36.20;1.00;;;;;;5982061;24;20997;-65
2023/06/10 13:26:54;;;;;;;9.43;5.80;;;37.00;1.00;;;;;;5982457;24;20475;-66
2023/06/10 13:29:21;;;;;;;9.53;6.33;;;37.70;1.00;;;;;;5982311;24;20419;-67
2023/06/10 13:31:48;;;;;;;11.27;7.17;;;37.40;1.00;;;;;;5982561;24;20416;-66
2023/06/10 13:34:16;;;;;;;8.30;6.10;;;36.80;1.00;;;;;;5981908;24;20427;-67
2023/06/10 13:36:43;;;;;;;9.47;6.40;;;37.10;1.00;;;;;;5981499;24;20451;-66
2023/06/10 13:39:10;;;;;;;9.07;6.40;;;36.60;1.00;;;;;;5982555;24;20422;-64
2023/06/10 13:41:37;;;;;;;11.60;6.23;;;37.20;1.00;;;;;;5982244;24;20497;-64
2023/06/10 13:44:04;;;;;;;8.80;6.20;;;37.20;1.00;;;;;;5981756;24;20473;-64
2023/06/10 13:46:31;;;;;;;9.90;5.80;;;36.90;1.00;;;;;;5980723;24;20428;-64
2023/06/10 13:48:58;;;;;;;7.47;5.80;;;35.60;1.00;;;;;;5981936;24;20420;-66
2023/06/10 13:51:26;;;;;;;9.33;6.33;;;35.50;1.00;;;;;;5982451;24;20494;-66
2023/06/10 13:53:53;;;;;;;11.00;6.80;;;36.10;1.00;;;;;;5979858;24;20908;-67
2023/06/10 13:56:20;;;;;;;9.20;5.93;;;35.10;1.00;;;;;;5982325;24;20897;-68
2023/06/10 13:58:47;;;;;;;9.30;6.47;;;34.60;1.00;;;;;;5978717;24;20748;-67
2023/06/10 14:01:14;;;;;;;8.50;5.90;;;35.10;1.00;;;;;;5981118;24;20439;-66
2023/06/10 14:03:41;;;;;;;9.83;5.40;;;35.50;1.00;;;;;;5980559;24;20805;-67
2023/06/10 14:06:08;;;;;;;8.47;5.97;;;36.80;1.00;;;;;;5980891;24;20477;-66
2023/06/10 14:08:36;;;;;;;12.13;5.90;;;36.90;1.00;;;;;;5980393;24;20495;-67
2023/06/10 14:11:03;;;;;;;7.80;5.90;;;37.50;1.00;;;;;;5980940;24;20426;-67
2023/06/10 14:13:30;;;;;;;7.90;5.83;;;38.00;1.00;;;;;;5980297;24;20481;-67
2023/06/10 14:15:57;;;;;;;11.10;5.70;;;37.40;1.00;;;;;;5981285;24;20967;-68
2023/06/10 14:18:24;;;;;;;9.70;5.83;;;38.80;1.00;;;;;;5981046;24;20699;-67
2023/06/10 14:20:51;;;;;;;10.97;5.20;;;40.30;1.00;;;;;;5981119;24;20419;-69
2023/06/10 14:23:18;;;;;;;7.20;4.77;;;40.20;1.00;;;;;;5989531;24;20782;-67
2023/06/10 14:25:46;;;;;;;8.67;5.87;;;40.90;1.00;;;;;;5981269;24;20481;-67
2023/06/10 14:28:13;;;;;;;10.70;6.07;;;41.50;1.00;;;;;;5981203;24;20390;-67
2023/06/10 14:30:40;;;;;;;8.70;6.20;;;41.20;1.00;;;;;;5981427;24;20418;-67
2023/06/10 14:33:07;;;;;;;10.13;5.63;;;39.30;1.00;;;;;;5980574;24;20802;-68
2023/06/10 14:35:33;;;;;;;12.33;6.60;;;37.70;1.00;;;;;;5980883;24;20394;-66
2023/06/10 14:38:00;;;;;;;7.90;6.00;;;35.70;1.00;;;;;;5980168;24;20434;-68
2023/06/10 14:40:28;;;;;;;11.23;6.63;;;34.30;1.00;;;;;;5982442;24;20400;-68
2023/06/10 14:42:57;;;;;;;9.30;6.30;;;33.30;1.00;;;;;;5982135;24;20493;-67
2023/06/10 14:45:25;;;;;;;7.80;6.60;;;32.50;1.00;;;;;;5982720;24;20390;-67
2023/06/10 14:47:52;;;;;;;11.90;6.20;;;31.90;1.00;;;;;;5982667;24;20691;-67
2023/06/10 14:50:18;;;;;;;14.40;8.97;;;31.40;1.00;;;;;;5982213;24;20900;-67
2023/06/10 14:52:45;;;;;;;9.23;6.90;;;31.00;1.00;;;;;;5982394;24;20503;-67
2023/06/10 14:55:12;;;;;;;9.60;6.40;;;30.70;1.00;;;;;;5982650;24;20470;-68
2023/06/10 14:57:39;;;;;;;9.67;6.73;;;30.60;1.00;;;;;;5983974;24;21091;-67
2023/06/10 15:00:09;;;;;;;9.33;7.00;;;30.50;1.00;;;;;;5984713;24;20426;-67